ADDS METAR Data INFO
IDs: Format: Raw Decoded Include TAF

Data at: 2020 UTC 18 Jul 2018

K3LF 182015Z AUTO 08005KT 10SM SCT040 28/19 A3006 RMK AO2 T02780188
K3LF 181955Z AUTO 10006KT 10SM SCT040 28/19 A3007 RMK AO2 T02830188
K3LF 181935Z AUTO 09004KT 10SM CLR 28/19 A3008 RMK AO2 T02810187
K3LF 181915Z AUTO 09004KT 10SM CLR 28/18 A3008 RMK AO2 T02770179
K3LF 181855Z AUTO 05006KT 10SM CLR 28/19 A3009 RMK AO2 T02750186
K3LF 181835Z AUTO 04004KT 10SM CLR 28/19 A3009 RMK AO2 T02770190
K3LF 181815Z AUTO 00000KT 10SM CLR 27/19 A3010 RMK AO2 T02730185
K3LF 181755Z AUTO 12006KT 10SM CLR 27/18 A3010 RMK AO2 T02710179
K3LF 181735Z AUTO 10006KT 10SM CLR 27/18 A3010 RMK AO2 T02670175
K3LF 181715Z AUTO 08006KT 10SM CLR 27/17 A3011 RMK AO2 T02670174
K3LF 181655Z AUTO 12006KT 10SM CLR 26/17 A3011 RMK AO2 T02640167
K3LF 181635Z AUTO 09007KT 070V130 10SM CLR 26/16 A3012 RMK AO2 T02590163
K3LF 181615Z AUTO 12006KT 10SM CLR 26/16 A3012 RMK AO2 T02550158
K3LF 181555Z AUTO 11009KT 10SM CLR 25/15 A3013 RMK AO2 T02530154
K3LF 181535Z AUTO 10009KT 10SM CLR 25/15 A3012 RMK AO2 T02470148
K3LF 181515Z AUTO 09009KT 10SM 25/15 A3012 RMK AO2 T02450151
K3LF 181455Z AUTO 12009KT 10SM CLR 24/15 A3011 RMK AO2 T02380151
K3LF 181435Z AUTO 10010KT 10SM CLR 23/15 A3012 RMK AO2 T02340149
K3LF 181415Z AUTO 10009KT 10SM CLR 23/14 A3012 RMK AO2 T02260142
K3LF 181355Z AUTO 10007KT 10SM CLR 22/14 A3012 RMK AO2 T02200141
K3LF 181335Z AUTO 10007KT 10SM SCT100 21/15 A3011 RMK AO2 LTG DSNT SW T02140145
K3LF 181315Z AUTO 09008KT 10SM BKN100 20/14 A3011 RMK AO2 T02020140
K3LF 181255Z AUTO 09008KT 10SM SCT110 21/15 A3011 RMK AO2 T02080145
K3LF 181235Z AUTO 09010KT 10SM CLR 20/14 A3011 RMK AO2 T02020144 PNO
K3LF 181215Z AUTO 08010KT 10SM CLR 20/15 A3011 RMK AO2 T01960148
K3LF 181155Z AUTO 08009KT 10SM CLR 19/15 A3011 RMK AO2 7//// T01900151 10203 20179
K3LF 181135Z AUTO 08007KT 10SM CLR 19/15 A3011 RMK AO2 T01860154
K3LF 181115Z AUTO 09007KT 10SM CLR 19/16 A3010 RMK AO2 T01850157
K3LF 181055Z AUTO 09007KT 10SM CLR 19/16 A3010 RMK AO2 T01850158
K3LF 181035Z AUTO 08008KT 10SM CLR 19/16 A3010 RMK AO2 T01870160
K3LF 181015Z AUTO 08008KT 10SM CLR 19/16 A3009 RMK AO2 T01900164
K3LF 180955Z AUTO 07009KT 10SM CLR 19/17 A3009 RMK AO2 T01910168
K3LF 180935Z AUTO 08008KT 10SM CLR 20/17 A3009 RMK AO2 T01950172
K3LF 180915Z AUTO 07008KT 10SM CLR 20/18 A3009 RMK AO2 T01960178
K3LF 180855Z AUTO 08008KT 10SM CLR 20/18 A3009 RMK AO2 T02020182
K3LF 180835Z AUTO 06006KT 10SM CLR 20/19 A3009 RMK AO2 T02010185
K3LF 180815Z AUTO 04006KT 10SM CLR 19/19 A3009 RMK AO2 T01910187
K3LF 180755Z AUTO 00000KT 10SM CLR 18/18 A3009 RMK AO2 T01800175
K3LF 180735Z AUTO 36003KT 10SM CLR 19/18 A3009 RMK AO2 T01880183
K3LF 180715Z AUTO 35003KT 10SM CLR 19/18 A3009 RMK AO2 T01850180
K3LF 180655Z AUTO 00000KT 10SM CLR 18/17 A3009 RMK AO2 T01790172
K3LF 180635Z AUTO 00000KT 10SM CLR 19/18 A3009 RMK AO2 T01900182
K3LF 180615Z AUTO 00000KT 10SM CLR 19/18 A3009 RMK AO2 T01910182
K3LF 180555Z AUTO 00000KT 10SM CLR 19/18 A3009 RMK AO2 T01900178 10271 20190 402900188
K3LF 180535Z AUTO 00000KT 10SM CLR 20/18 A3009 RMK AO2 T01950181
K3LF 180515Z AUTO 00000KT 10SM CLR 19/18 A3009 RMK AO2 T01930179
K3LF 180455Z AUTO 09003KT 10SM CLR 21/19 A3009 RMK AO2 T02050185
K3LF 180435Z AUTO 06003KT 10SM CLR 21/19 A3009 RMK AO2 T02050185
K3LF 180415Z AUTO 05003KT 10SM CLR 21/19 A3009 RMK AO2 T02120185
K3LF 180355Z AUTO 06003KT 10SM CLR 21/19 A3009 RMK AO2 T02120188
K3LF 180335Z AUTO 00000KT 10SM CLR 22/19 A3008 RMK AO2 T02170185
K3LF 180315Z AUTO 05003KT 10SM CLR 23/19 A3008 RMK AO2 T02300186
K3LF 180255Z AUTO 05003KT 10SM CLR 23/19 A3007 RMK AO2 T02310189
K3LF 180235Z AUTO 05004KT 10SM CLR 23/19 A3006 RMK AO2 T02310191
K3LF 180215Z AUTO 06003KT 10SM CLR 23/19 A3007 RMK AO2 T02280191
K3LF 180155Z AUTO 04003KT 10SM CLR 24/19 A3007 RMK AO2 T02350192
K3LF 180135Z AUTO 03004KT 10SM CLR 24/19 A3007 RMK AO2 T02430190
K3LF 180115Z AUTO 03004KT 10SM CLR 25/19 A3006 RMK AO2 T02470193
K3LF 180055Z AUTO 00000KT 10SM CLR 26/19 A3006 RMK AO2 T02570194
K3LF 180035Z AUTO 04003KT 10SM CLR 27/20 A3006 RMK AO2 T02650196
K3LF 180015Z AUTO 04005KT 10SM CLR 27/19 A3006 RMK AO2 T02650186
K3LF 172355Z AUTO 06005KT 10SM CLR 27/18 A3006 RMK AO2 6//// T02730183 10288 20271
K3LF 172335Z AUTO 05007KT 10SM CLR 27/19 A3006 RMK AO2 T02720186
K3LF 172315Z AUTO 04005KT 10SM CLR 28/19 A3006 RMK AO2 T02770186
K3LF 172255Z AUTO 02007KT 350V050 10SM CLR 28/19 A3006 RMK AO2 T02790185
K3LF 172235Z AUTO 03005KT 10SM CLR 28/19 A3006 RMK AO2 T02820189
K3LF 172215Z AUTO 36004KT 10SM CLR 29/19 A3006 RMK AO2 T02850190
K3LF 172155Z AUTO 02004KT 10SM SCT040 29/19 A3007 RMK AO2 T02860191 PNO
K3LF 172135Z AUTO 05003KT 10SM CLR 29/20 A3007 RMK AO2 T02850198
K3LF 172115Z AUTO 06004KT 7SM CLR 29/20 A3007 RMK AO2 T02860195
K3LF 172055Z AUTO 08006KT 10SM CLR 29/19 A3007 RMK AO2 6//// T02860190 PNO
K3LF 172035Z AUTO 02005KT 10SM CLR 28/20 A3008 RMK AO2 T02820196
K3LF 172015Z AUTO 09005KT 10SM CLR 28/19 A3008 RMK AO2 T02830194
K3LF 171955Z AUTO 06006KT 10SM CLR 28/19 A3007 RMK AO2 T02810186
K3LF 171935Z AUTO 07004KT 10SM CLR 29/19 A3008 RMK AO2 T02850190
K3LF 171915Z AUTO 07008KT 10SM CLR 28/19 A3008 RMK AO2 T02810188
K3LF 171855Z AUTO 05008KT 10SM CLR 28/19 A3008 RMK AO2 T02830191
K3LF 171835Z AUTO 05009KT 10SM CLR 29/19 A3008 RMK AO2 T02850192
K3LF 171815Z AUTO 06005KT 10SM CLR 28/18 A3009 RMK AO2 T02820184
K3LF 171755Z AUTO 05006KT 10SM CLR 29/19 A3009 RMK AO2 T02870192 10290 20197
K3LF 171735Z AUTO 08007G15KT 10SM CLR 29/18 A3009 RMK AO2 T02890178
K3LF 171715Z AUTO 09008KT 10SM CLR 29/18 A3009 RMK AO2 T02850180
K3LF 171655Z AUTO 08006KT 10SM CLR 28/19 A3009 RMK AO2 T02840186
K3LF 171635Z AUTO 10005KT 10SM CLR 28/18 A3009 RMK AO2 T02820184
K3LF 171615Z AUTO 07005KT 10SM CLR 28/19 A3009 RMK AO2 T02770186
K3LF 171555Z AUTO 07005KT 10SM CLR 27/20 A3009 RMK AO2 T02720196
K3LF 171535Z AUTO 06006KT 10SM CLR 26/20 A3009 RMK AO2 T02640197
K3LF 171515Z AUTO 06004KT 10SM CLR 26/20 A3009 RMK AO2 T02600201
K3LF 171455Z AUTO 02006KT 10SM CLR 25/21 A3009 RMK AO2 T02500205
K3LF 171435Z AUTO 01005KT 10SM CLR 25/20 A3009 RMK AO2 T02470203
K3LF 171415Z AUTO 01007KT 10SM CLR 24/20 A3009 RMK AO2 T02420195
K3LF 171355Z AUTO 01007KT 10SM CLR 24/19 A3008 RMK AO2 T02360188
K3LF 171335Z AUTO 01005KT 10SM CLR 23/19 A3008 RMK AO2 T02310185
K3LF 171315Z AUTO 02007KT 10SM CLR 23/18 A3008 RMK AO2 T02250178
K3LF 171255Z AUTO 01006KT 10SM CLR 22/18 A3007 RMK AO2 T02210180
K3LF 171235Z AUTO 01007KT 10SM CLR 22/18 A3007 RMK AO2 T02150183
K3LF 171215Z AUTO 01003KT 10SM CLR 21/19 A3007 RMK AO2 T02050190
K3LF 171155Z AUTO 36004KT 10SM CLR 20/19 A3007 RMK AO2 T01970189 10225 20188
K3LF 171135Z AUTO 35004KT 10SM CLR 20/19 A3006 RMK AO2 T01950187
K3LF 171115Z AUTO 35005KT 10SM CLR 19/19 A3006 RMK AO2 T01920187
K3LF 171055Z AUTO 36005KT 10SM CLR 19/19 A3006 RMK AO2 T01910187
K3LF 171035Z AUTO 36006KT 10SM CLR 19/19 A3005 RMK AO2 T01880185
K3LF 171015Z AUTO 34004KT 10SM CLR 19/19 A3004 RMK AO2 T01920188
K3LF 170955Z AUTO 36005KT 10SM CLR 20/19 A3004 RMK AO2 T01950190
K3LF 170935Z AUTO 35003KT 10SM CLR 20/19 A3004 RMK AO2 T01970191
K3LF 170915Z AUTO 35004KT 10SM CLR 20/19 A3003 RMK AO2 T02010193
K3LF 170855Z AUTO 35006KT 10SM CLR 21/20 A3003 RMK AO2 T02050197
K3LF 170835Z AUTO 34005KT 10SM CLR 21/20 A3003 RMK AO2 T02080202